createdAt,value
2019-04-05T00:00:45.704Z,11.88
2019-04-05T00:03:16.085Z,12.65
2019-04-05T00:05:46.389Z,15.83
2019-04-05T00:08:16.970Z,13.88
2019-04-05T00:10:47.275Z,12.23
2019-04-05T00:13:17.644Z,13.28
2019-04-05T00:15:48.001Z,14.83
2019-04-05T00:18:24.954Z,17.05
2019-04-05T00:20:55.267Z,14.65
2019-04-05T00:23:25.559Z,15.78
2019-04-05T00:25:55.987Z,12.28
2019-04-05T00:28:27.472Z,13.25
2019-04-05T00:30:57.840Z,12.23
2019-04-05T00:33:28.136Z,11.83
2019-04-05T00:35:58.464Z,11.68
2019-04-05T00:38:28.786Z,14.68
2019-04-05T00:40:59.138Z,12.30
2019-04-05T00:43:29.472Z,12.88
2019-04-05T00:45:59.786Z,14.68
2019-04-05T00:48:31.206Z,13.22
2019-04-05T00:51:01.592Z,12.63
2019-04-05T00:53:31.948Z,14.75
2019-04-05T00:56:02.333Z,12.28
2019-04-05T00:58:33.038Z,13.78
2019-04-05T01:01:03.674Z,13.53
2019-04-05T01:03:34.021Z,13.68
2019-04-05T01:06:04.554Z,14.30
2019-04-05T01:08:34.908Z,14.15
2019-04-05T01:11:05.228Z,14.03
2019-04-05T01:13:35.977Z,11.18
2019-04-05T01:16:06.328Z,12.40
2019-04-05T01:18:36.662Z,13.25
2019-04-05T01:21:09.200Z,11.75
2019-04-05T01:23:39.681Z,14.25
2019-04-05T01:26:10.866Z,11.63
2019-04-05T01:28:41.679Z,11.20
2019-04-05T01:31:12.282Z,13.03
2019-04-05T01:33:42.602Z,13.05
2019-04-05T01:36:13.399Z,15.43
2019-04-05T01:38:44.704Z,11.68
2019-04-05T01:41:15.204Z,12.20
2019-04-05T01:43:45.502Z,13.72
2019-04-05T01:46:15.928Z,11.95
2019-04-05T01:48:46.255Z,11.97
2019-04-05T01:51:16.700Z,15.63
2019-04-05T01:53:47.195Z,11.88
2019-04-05T01:56:17.538Z,13.75
2019-04-05T01:58:48.768Z,12.13
2019-04-05T02:01:19.088Z,13.78
2019-04-05T02:03:49.481Z,13.80
2019-04-05T02:06:19.834Z,13.48
2019-04-05T02:08:50.160Z,11.90
2019-04-05T02:11:20.481Z,14.38
2019-04-05T02:13:50.811Z,10.30
2019-04-05T02:16:21.128Z,11.85
2019-04-05T02:18:51.466Z,11.78
2019-04-05T02:21:21.766Z,12.93
2019-04-05T02:23:52.099Z,16.67
2019-04-05T02:26:22.487Z,12.78
2019-04-05T02:28:53.668Z,13.83
2019-04-05T02:31:24.009Z,13.00
2019-04-05T02:33:54.349Z,15.93
2019-04-05T02:36:24.632Z,14.45
2019-04-05T02:38:54.968Z,12.78
2019-04-05T02:41:26.702Z,11.90
2019-04-05T02:43:58.735Z,16.15
2019-04-05T02:46:31.986Z,11.80
2019-04-05T02:49:05.095Z,12.25
2019-04-05T02:51:37.338Z,11.90
2019-04-05T02:54:08.025Z,14.78
2019-04-05T02:56:38.655Z,13.22
2019-04-05T02:59:09.685Z,10.93
2019-04-05T03:01:40.316Z,14.03
2019-04-05T03:04:10.591Z,13.25
2019-04-05T03:06:41.750Z,13.35
2019-04-05T03:09:12.914Z,13.22
2019-04-05T03:11:44.219Z,13.00
2019-04-05T03:14:15.296Z,11.35
2019-04-05T03:16:58.511Z,16.00
2019-04-05T03:19:32.071Z,9.23
2019-04-05T03:22:08.221Z,12.50
2019-04-05T03:24:41.503Z,13.93
2019-04-05T03:27:19.660Z,11.30
2019-04-05T03:29:51.359Z,13.28
2019-04-05T03:32:21.997Z,11.15
2019-04-05T03:34:52.511Z,15.28
2019-04-05T03:37:22.855Z,15.30
2019-04-05T03:39:53.474Z,16.23
2019-04-05T03:42:23.832Z,14.23
2019-04-05T03:44:54.531Z,11.60
2019-04-05T03:47:24.965Z,14.68
2019-04-05T03:49:55.354Z,13.30
2019-04-05T03:52:25.674Z,9.88
2019-04-05T03:54:56.204Z,13.40
2019-04-05T03:57:26.742Z,13.32
2019-04-05T03:59:57.539Z,13.35
2019-04-05T04:02:27.880Z,14.35
2019-04-05T04:04:58.286Z,10.30
2019-04-05T04:07:28.844Z,10.03
2019-04-05T04:09:59.371Z,13.95
2019-04-05T04:12:29.849Z,13.93
2019-04-05T04:15:14.246Z,13.30
2019-04-05T04:17:46.172Z,12.35
2019-04-05T04:20:35.018Z,12.58
2019-04-05T04:23:08.014Z,13.38
2019-04-05T04:25:38.850Z,13.13
2019-04-05T04:28:09.308Z,10.30
2019-04-05T04:30:39.737Z,13.08
2019-04-05T04:33:10.912Z,15.18
2019-04-05T04:35:42.409Z,11.85
2019-04-05T04:38:12.878Z,10.20
2019-04-05T04:40:43.637Z,12.78
2019-04-05T04:43:14.591Z,12.10
2019-04-05T04:45:45.108Z,11.73
2019-04-05T04:48:15.915Z,13.85
2019-04-05T04:50:46.993Z,12.82
2019-04-05T04:53:17.862Z,14.45
2019-04-05T04:55:48.115Z,9.88
2019-04-05T04:58:18.714Z,12.93
2019-04-05T05:00:50.750Z,10.43
2019-04-05T05:03:21.560Z,9.68
2019-04-05T05:06:00.378Z,9.90
2019-04-05T05:08:31.098Z,12.33
2019-04-05T05:11:13.684Z,11.78
2019-04-05T05:13:34.564Z,14.95
2019-04-05T05:16:05.684Z,9.65
2019-04-05T05:18:36.303Z,14.18
2019-04-05T05:21:07.046Z,15.32
2019-04-05T05:23:37.570Z,12.75
2019-04-05T05:26:07.920Z,14.98
2019-04-05T05:28:38.358Z,11.63
2019-04-05T05:31:09.868Z,10.38
2019-04-05T05:33:40.298Z,10.95
2019-04-05T05:36:10.815Z,9.65
2019-04-05T05:38:41.194Z,10.65
2019-04-05T05:41:11.604Z,10.65
2019-04-05T05:43:42.200Z,12.37
2019-04-05T05:46:12.601Z,11.60
2019-04-05T05:48:44.604Z,11.68
2019-04-05T05:51:15.578Z,11.22
2019-04-05T05:53:46.047Z,13.13
2019-04-05T05:56:16.358Z,12.53
2019-04-05T05:58:46.640Z,12.47
2019-04-05T06:01:17.492Z,16.25
2019-04-05T06:03:47.830Z,12.55
2019-04-05T06:06:19.160Z,13.65
2019-04-05T06:08:49.634Z,8.63
2019-04-05T06:11:20.082Z,13.93
2019-04-05T06:13:50.407Z,12.37
2019-04-05T06:16:20.791Z,10.50
2019-04-05T06:18:51.115Z,15.68
2019-04-05T06:21:21.480Z,14.47
2019-04-05T06:23:52.914Z,13.20
2019-04-05T06:26:23.298Z,11.38
2019-04-05T06:28:53.762Z,13.70
2019-04-05T06:31:25.250Z,10.60
2019-04-05T06:33:55.656Z,11.57
2019-04-05T06:36:26.010Z,14.43
2019-04-05T06:38:56.396Z,14.00
2019-04-05T06:41:26.754Z,15.38
2019-04-05T06:43:57.343Z,13.90
2019-04-05T06:46:27.706Z,15.40
2019-04-05T06:48:58.030Z,13.30
2019-04-05T06:51:28.377Z,16.33
2019-04-05T06:53:58.748Z,12.27
2019-04-05T06:56:29.109Z,13.70
2019-04-05T06:58:59.604Z,13.77
2019-04-05T07:01:31.500Z,12.47
2019-04-05T07:04:01.827Z,14.83
2019-04-05T07:06:32.250Z,13.57
2019-04-05T07:09:02.595Z,14.47
2019-04-05T07:11:33.126Z,13.23
2019-04-05T07:14:03.490Z,16.83
2019-04-05T07:16:33.809Z,17.53
2019-04-05T07:19:04.203Z,17.87
2019-04-05T07:21:34.644Z,15.70
2019-04-05T07:24:05.049Z,17.50
2019-04-05T07:26:35.377Z,14.07
2019-04-05T07:29:05.736Z,13.90
2019-04-05T07:31:37.548Z,16.07
2019-04-05T07:34:08.224Z,13.10
2019-04-05T07:36:41.200Z,15.33
2019-04-05T07:39:11.876Z,12.77
2019-04-05T07:41:42.293Z,13.50
2019-04-05T07:44:12.729Z,13.97
2019-04-05T07:46:46.331Z,15.47
2019-04-05T07:49:15.572Z,16.40
2019-04-05T07:51:45.996Z,16.53
2019-04-05T07:54:16.322Z,15.47
2019-04-05T07:56:46.825Z,11.40
2019-04-05T07:59:17.177Z,14.13
2019-04-05T08:01:47.714Z,14.77
2019-04-05T08:04:18.207Z,15.57
2019-04-05T08:06:49.982Z,16.73
2019-04-05T08:09:21.332Z,14.13
2019-04-05T08:11:51.842Z,15.40
2019-04-05T08:14:22.677Z,11.83
2019-04-05T08:16:53.325Z,14.40
2019-04-05T08:19:23.656Z,15.23
2019-04-05T08:21:54.208Z,12.43
2019-04-05T08:24:24.602Z,13.43
2019-04-05T08:26:55.012Z,18.27
2019-04-05T08:29:25.418Z,16.20
2019-04-05T08:31:55.886Z,16.90
2019-04-05T08:34:27.876Z,17.50
2019-04-05T08:36:58.362Z,17.40
2019-04-05T08:39:28.759Z,17.90
2019-04-05T08:41:59.270Z,16.60
2019-04-05T08:44:29.609Z,21.47
2019-04-05T08:46:59.989Z,18.90
2019-04-05T08:49:30.382Z,20.53
2019-04-05T08:52:00.732Z,19.67
2019-04-05T08:54:33.226Z,19.70
2019-04-05T09:27:57.938Z,16.57
2019-04-05T09:30:28.296Z,17.90
2019-04-05T09:32:58.648Z,15.33
2019-04-05T09:50:33.024Z,20.17
2019-04-05T09:53:03.359Z,20.20
2019-04-05T10:10:46.498Z,18.37
2019-04-05T10:13:16.821Z,17.93
2019-04-05T10:15:47.221Z,17.97
2019-04-05T10:18:17.504Z,19.43
2019-04-05T10:20:47.852Z,20.57
2019-04-05T10:23:18.186Z,19.40
2019-04-05T10:25:48.518Z,18.70
2019-04-05T10:31:21.150Z,20.13
2019-04-05T10:33:51.512Z,20.33
2019-04-05T10:36:21.790Z,21.17
2019-04-05T10:38:52.128Z,16.43
2019-04-05T10:41:23.099Z,16.50
2019-04-05T10:43:53.744Z,19.50
2019-04-05T10:52:30.645Z,17.57
2019-04-05T10:58:22.191Z,19.30
2019-04-05T11:00:52.703Z,19.57
2019-04-05T11:03:23.048Z,18.77
2019-04-05T11:05:53.408Z,18.60
2019-04-05T11:08:23.726Z,19.30
2019-04-05T11:10:54.116Z,16.80
2019-04-05T11:13:25.594Z,20.00
2019-04-05T11:15:55.930Z,19.00
2019-04-05T11:18:26.337Z,20.20
2019-04-05T11:23:56.286Z,19.80
2019-04-05T11:26:26.786Z,20.67
2019-04-05T11:28:57.067Z,15.53
2019-04-05T11:31:27.683Z,22.50
2019-04-05T11:34:01.644Z,18.40
2019-04-05T11:36:32.463Z,19.00
2019-04-05T11:39:06.021Z,17.20
2019-04-05T11:41:37.876Z,19.03
2019-04-05T11:47:19.383Z,18.67
2019-04-05T11:49:50.801Z,20.43
2019-04-05T11:52:21.140Z,19.57
2019-04-05T11:54:52.410Z,18.70
2019-04-05T11:57:22.768Z,17.63
2019-04-05T11:59:53.096Z,17.33
2019-04-05T12:02:34.324Z,16.10
2019-04-05T12:05:05.343Z,23.93
2019-04-05T12:07:35.740Z,15.97
2019-04-05T12:10:07.121Z,18.10
2019-04-05T12:12:37.536Z,19.80
2019-04-05T12:15:08.152Z,16.17
2019-04-05T12:17:39.131Z,19.20
2019-04-05T12:23:09.098Z,18.20
2019-04-05T12:25:39.465Z,16.33
2019-04-05T12:28:10.746Z,17.97
2019-04-05T12:30:45.703Z,17.97
2019-04-05T12:33:36.332Z,15.33
2019-04-05T12:36:06.720Z,17.23
2019-04-05T12:38:37.078Z,17.03
2019-04-05T12:41:10.816Z,16.80
2019-04-05T12:43:39.346Z,17.63
2019-04-05T12:46:09.891Z,19.70
2019-04-05T12:48:45.459Z,17.90
2019-04-05T12:51:15.700Z,18.37
2019-04-05T12:53:46.629Z,14.47
2019-04-05T12:56:17.016Z,12.27
2019-04-05T12:58:47.314Z,15.33
2019-04-05T13:01:17.711Z,20.33
2019-04-05T13:03:51.170Z,17.07
2019-04-05T13:06:21.785Z,17.60
2019-04-05T13:08:53.853Z,16.37
2019-04-05T13:11:26.635Z,13.27
2019-04-05T13:13:57.884Z,18.93
2019-04-05T13:16:28.244Z,18.50
2019-04-05T13:19:00.959Z,14.37
2019-04-05T13:21:33.222Z,14.63
2019-04-05T13:24:04.323Z,16.32
2019-04-05T13:26:36.865Z,15.60
2019-04-05T13:29:07.448Z,13.77
2019-04-05T13:31:37.756Z,16.37
2019-04-05T13:34:09.165Z,14.80
2019-04-05T13:36:40.400Z,14.70
2019-04-05T13:39:10.852Z,17.73
2019-04-05T13:41:41.785Z,13.10
2019-04-05T13:44:12.096Z,13.70
2019-04-05T13:46:42.797Z,15.67
2019-04-05T13:49:14.534Z,15.60
2019-04-05T13:51:44.848Z,16.10
2019-04-05T13:54:15.178Z,13.30
2019-04-05T13:56:45.508Z,15.27
2019-04-05T13:59:15.932Z,14.00
2019-04-05T14:01:46.277Z,13.73
2019-04-05T14:04:17.099Z,14.17
2019-04-05T14:06:47.534Z,15.50
2019-04-05T14:09:18.133Z,14.40
2019-04-05T14:11:48.444Z,14.00
2019-04-05T14:14:19.957Z,16.10
2019-04-05T14:16:53.943Z,14.77
2019-04-05T14:19:23.761Z,14.47
2019-04-05T14:21:54.040Z,12.63
2019-04-05T14:24:24.424Z,16.50
2019-04-05T14:27:02.855Z,13.77
2019-04-05T14:29:33.411Z,13.30
2019-04-05T14:32:22.079Z,16.37
2019-04-05T14:34:54.800Z,13.50
2019-04-05T14:37:25.180Z,14.10
2019-04-05T14:39:55.702Z,16.93
2019-04-05T14:42:26.044Z,16.00
2019-04-05T14:44:56.356Z,13.83
2019-04-05T14:47:41.803Z,15.67
2019-04-05T14:50:15.790Z,17.20
2019-04-05T14:52:45.146Z,15.97
2019-04-05T14:55:16.540Z,13.67
2019-04-05T14:57:46.898Z,15.30
2019-04-05T15:00:17.840Z,13.40
2019-04-05T15:03:07.263Z,18.00
2019-04-05T15:05:37.740Z,13.07
2019-04-05T15:08:08.032Z,13.83
2019-04-05T15:10:38.388Z,13.23
2019-04-05T15:13:08.702Z,14.50
2019-04-05T15:15:39.083Z,13.00
2019-04-05T15:18:09.407Z,17.17
2019-04-05T15:20:40.199Z,13.03
2019-04-05T15:23:13.839Z,11.60
2019-04-05T15:25:55.722Z,13.53
2019-04-05T15:28:26.041Z,12.00
2019-04-05T15:30:56.657Z,13.67
2019-04-05T15:33:27.752Z,15.20
2019-04-05T15:36:02.405Z,16.73
2019-04-05T15:38:31.742Z,15.30
2019-04-05T15:41:02.948Z,14.70
2019-04-05T15:43:33.270Z,13.83
2019-04-05T15:46:03.989Z,16.20
2019-04-05T15:48:34.312Z,15.13
2019-04-05T15:51:04.876Z,18.60
2019-04-05T15:53:35.230Z,13.23
2019-04-05T15:56:05.550Z,14.43
2019-04-05T15:58:35.849Z,11.77
2019-04-05T16:01:06.387Z,12.67
2019-04-05T16:03:37.026Z,15.17
2019-04-05T16:06:08.588Z,13.40
2019-04-05T16:08:38.930Z,13.13
2019-04-05T16:11:09.270Z,14.03
2019-04-05T16:13:39.591Z,14.83
2019-04-05T16:16:09.934Z,15.77
2019-04-05T16:18:40.286Z,15.43
2019-04-05T16:21:12.156Z,21.77
2019-04-05T16:23:42.492Z,11.80
2019-04-05T16:26:13.335Z,13.50
2019-04-05T16:28:43.606Z,14.63
2019-04-05T16:31:14.885Z,16.97
2019-04-05T16:33:45.247Z,13.30
2019-04-05T16:36:16.297Z,12.77
2019-04-05T16:38:46.651Z,15.07
2019-04-05T16:41:17.028Z,13.33
2019-04-05T16:43:47.384Z,12.67
2019-04-05T16:46:17.744Z,14.60
2019-04-05T16:48:48.124Z,13.23
2019-04-05T16:51:19.900Z,12.30
2019-04-05T16:54:00.249Z,13.90
2019-04-05T16:56:32.052Z,16.73
2019-04-05T16:59:02.405Z,11.80
2019-04-05T17:01:32.700Z,15.13
2019-04-05T17:04:03.066Z,13.43
2019-04-05T17:06:33.368Z,17.17
2019-04-05T17:09:05.234Z,15.93
2019-04-05T17:11:37.250Z,14.93
2019-04-05T17:14:07.701Z,16.17
2019-04-05T17:16:38.060Z,13.00
2019-04-05T17:19:08.418Z,13.40
2019-04-05T17:21:39.659Z,12.60
2019-04-05T17:24:09.986Z,11.63
2019-04-05T17:26:40.330Z,14.80
2019-04-05T17:29:10.614Z,13.53
2019-04-05T17:31:41.034Z,16.20
2019-04-05T17:34:11.364Z,15.23
2019-04-05T17:36:41.710Z,15.80
2019-04-05T17:39:12.064Z,16.60
2019-04-05T17:41:42.378Z,15.43
2019-04-05T17:44:12.785Z,13.40
2019-04-05T17:46:44.180Z,15.67
2019-04-05T17:49:14.523Z,14.67
2019-04-05T17:51:44.890Z,19.07
2019-04-05T17:54:15.296Z,16.97
2019-04-05T17:56:46.303Z,15.37
2019-04-05T17:59:17.578Z,13.60
2019-04-05T18:01:47.872Z,18.37
2019-04-05T18:04:18.204Z,13.97
2019-04-05T18:06:48.560Z,15.50
2019-04-05T18:09:18.858Z,11.63
2019-04-05T18:11:49.247Z,16.77
2019-04-05T18:14:19.744Z,16.43
2019-04-05T18:16:50.136Z,18.30
2019-04-05T18:19:20.458Z,16.77
2019-04-05T18:21:50.764Z,16.33
2019-04-05T18:24:21.116Z,16.87
2019-04-05T18:26:51.416Z,16.33
2019-04-05T18:29:21.766Z,15.40
2019-04-05T18:31:52.084Z,12.80
2019-04-05T18:34:22.421Z,11.90
2019-04-05T18:36:52.756Z,17.60
2019-04-05T18:39:23.142Z,12.83
2019-04-05T18:41:53.499Z,14.50
2019-04-05T18:44:23.904Z,20.80
2019-04-05T18:46:54.264Z,21.60
2019-04-05T18:49:24.670Z,15.73
2019-04-05T18:51:56.424Z,16.80
2019-04-05T18:54:26.728Z,17.03
2019-04-05T18:56:57.072Z,15.33
2019-04-05T18:59:27.392Z,19.53
2019-04-05T19:01:57.768Z,18.90
2019-04-05T19:04:28.107Z,19.57
2019-04-05T19:06:58.448Z,20.17
2019-04-05T19:09:28.794Z,16.87
2019-04-05T19:11:59.910Z,16.50
2019-04-05T19:14:30.263Z,17.40
2019-04-05T19:17:00.651Z,20.97
2019-04-05T19:19:31.075Z,18.17
2019-04-05T19:22:02.762Z,16.30
2019-04-05T19:24:33.118Z,18.80
2019-04-05T19:27:03.531Z,22.63
2019-04-05T19:29:33.909Z,20.10
2019-04-05T19:49:49.231Z,18.33
2019-04-05T19:52:19.604Z,17.03
2019-04-05T19:54:49.921Z,22.53
2019-04-05T19:57:20.298Z,17.57
2019-04-05T19:59:50.647Z,17.50
2019-04-05T20:02:22.028Z,17.47
2019-04-05T20:04:53.602Z,19.17
2019-04-05T20:07:24.012Z,20.23
2019-04-05T20:09:54.444Z,18.60
2019-04-05T20:12:26.330Z,18.97
2019-04-05T20:14:56.632Z,23.40
2019-04-05T20:17:26.992Z,14.67
2019-04-05T20:19:57.310Z,21.80
2019-04-05T20:22:29.073Z,18.87
2019-04-05T20:24:59.454Z,18.67
2019-04-05T20:27:29.826Z,21.23
2019-04-05T20:30:00.218Z,19.00
2019-04-05T20:32:30.702Z,21.50
2019-04-05T20:35:01.064Z,18.83
2019-04-05T20:37:31.355Z,17.80
2019-04-05T20:40:01.756Z,20.30
2019-04-05T20:42:32.136Z,17.87
2019-04-05T20:45:02.542Z,20.87
2019-04-05T20:47:32.928Z,16.70
2019-04-05T20:50:03.285Z,22.10
2019-04-05T20:52:34.838Z,15.93
2019-04-05T20:55:06.136Z,21.73
2019-04-05T20:57:36.494Z,18.07
2019-04-05T21:00:07.612Z,21.53
2019-04-05T21:02:39.900Z,18.33
2019-04-05T21:05:10.201Z,16.37
2019-04-05T21:07:40.591Z,17.80
2019-04-05T21:10:11.070Z,16.63
2019-04-05T21:12:41.418Z,16.63
2019-04-05T21:15:11.767Z,17.97
2019-04-05T21:17:42.078Z,18.03
2019-04-05T21:20:12.846Z,16.27
2019-04-05T21:22:44.502Z,18.67
2019-04-05T21:25:14.831Z,18.20
2019-04-05T21:27:45.201Z,17.43
2019-04-05T21:30:15.834Z,19.70
2019-04-05T21:32:46.273Z,17.77
2019-04-05T21:35:16.520Z,15.60
2019-04-05T21:37:47.931Z,15.47
2019-04-05T21:40:18.233Z,14.17
2019-04-05T21:42:48.826Z,17.27
2019-04-05T21:45:19.136Z,17.23
2019-04-05T21:47:49.548Z,17.37
2019-04-05T21:50:19.912Z,16.10
2019-04-05T21:52:51.348Z,17.10
2019-04-05T21:55:22.247Z,18.47
2019-04-05T21:57:52.591Z,16.60
2019-04-05T22:00:26.345Z,17.50
2019-04-05T22:02:58.549Z,18.33
2019-04-05T22:05:28.944Z,16.73
2019-04-05T22:08:00.325Z,16.50
2019-04-05T22:10:30.675Z,15.73
2019-04-05T22:13:00.972Z,14.83
2019-04-05T22:15:32.291Z,16.07
2019-04-05T22:18:02.616Z,12.00
2019-04-05T22:20:33.015Z,13.47
2019-04-05T22:23:04.902Z,15.50
2019-04-05T22:25:35.301Z,13.67
2019-04-05T22:28:05.657Z,17.00
2019-04-05T22:30:36.038Z,13.93
2019-04-05T22:33:06.365Z,15.40
2019-04-05T22:35:36.707Z,15.67
2019-04-05T22:38:07.024Z,15.43
2019-04-05T22:40:37.348Z,11.90
2019-04-05T22:43:07.717Z,15.40
2019-04-05T22:45:38.015Z,10.93
2019-04-05T22:48:08.496Z,13.28
2019-04-05T22:50:38.889Z,11.43
2019-04-05T22:53:09.433Z,12.80
2019-04-05T22:55:39.756Z,14.60
2019-04-05T22:58:10.174Z,13.27
2019-04-05T23:00:40.520Z,15.90
2019-04-05T23:03:12.806Z,15.87
2019-04-05T23:05:43.151Z,11.97
2019-04-05T23:08:13.456Z,13.22
2019-04-05T23:10:43.736Z,13.47
2019-04-05T23:13:14.194Z,13.65
2019-04-05T23:15:44.526Z,14.80
2019-04-05T23:18:14.920Z,12.57
2019-04-05T23:20:45.265Z,14.73
2019-04-05T23:23:16.606Z,12.17
2019-04-05T23:25:46.938Z,14.20
2019-04-05T23:28:17.270Z,14.13
2019-04-05T23:30:47.590Z,11.93
2019-04-05T23:33:17.924Z,13.32
2019-04-05T23:35:48.314Z,13.40
2019-04-05T23:38:18.632Z,17.32
2019-04-05T23:40:48.972Z,12.50
2019-04-05T23:43:19.374Z,13.53
2019-04-05T23:45:49.716Z,12.43
2019-04-05T23:48:20.163Z,11.85
2019-04-05T23:50:50.491Z,13.60
2019-04-05T23:53:21.634Z,15.48
2019-04-05T23:55:51.980Z,12.35
2019-04-05T23:58:22.346Z,10.32
